Sandringham, United Kingdom
Current Conditions -  °F | °C
As of 10:50 PM on Tuesday 27 Jan 2015 (Local Time) from EGYM Reporting Station
Broken Clouds Broken Clouds  
Wind Chill: 37°   Ceiling: 2800
Heat Index: 43°   Visibility: 6mi
Dew Point: 37°   Wind: 10mph
Humidity: 81%   Direction: 220°SW
Pressure: 30.06"   Gusts: NA
Location:  52.82°N, 0.5°E
Report Text: EGYM 272250Z 22009KT 9999 BKN028 06/03 Q1018 BLU
Loading
Personal Weather Stations






























Interactive Weather Map New forecast layout! Learn more

10-Day Weather Forecast

Advertisements
Track Severe Weather on mobile